Jesuitas, Brazil
Current Conditions -  °F | °C
As of 12:00 AM on Saturday 22 Nov 2014 (Local Time) from SBCA Reporting Station
Thunderstorm Thunderstorm  
Wind Chill: 68°   Ceiling: 4000
Heat Index: 68°   Visibility: 6mi
Dew Point: 66°   Wind: 14mph
Humidity: 94%   Direction: 220°SW
Pressure: 30"   Gusts: NA
Location:  24.39°S, 53.39°W
Report Text: SBCA 220200Z 22012KT 9999 TSRA SCT005 BKN040 FEW060CB 20/19 Q1016
Loading
Personal Weather Stations






























Interactive Weather Map New forecast layout! Learn more

10-Day Weather Forecast

Advertisements
Track Severe Weather on mobile